Time;durP1;ratioP1;P1;durP2;ratioP2;P2;SDS_P1;SDS_P2;PMS_P1;PMS_P2;Temp;Humidity;BMP_temperature;BMP_pressure;BME280_temperature;BME280_humidity;BME280_pressure;Samples;Min_cycle;Max_cycle;Signal;HPM_P1;HPM_P2
2021/06/23 00:01:44;;;;;;;19.15;5.72;;;11.30;95.10;;;;;;5046043;28;20134;-84
2021/06/23 00:04:10;;;;;;;19.08;6.75;;;11.30;95.10;;;;;;5049946;28;20122;-83
2021/06/23 00:06:36;;;;;;;13.23;6.82;;;11.30;95.20;;;;;;5049271;28;20312;-84
2021/06/23 00:09:04;;;;;;;15.60;5.85;;;11.30;95.20;;;;;;5049761;28;20062;-84
2021/06/23 00:11:42;;;;;;;17.83;6.25;;;11.30;95.00;;;;;;5063656;28;20379;-84
2021/06/23 00:14:08;;;;;;;13.07;6.07;;;11.30;95.10;;;;;;5065241;28;20072;-84
2021/06/23 00:16:34;;;;;;;13.70;6.18;;;11.30;95.20;;;;;;5047769;28;20029;-83
2021/06/23 00:19:01;;;;;;;19.27;6.20;;;11.30;95.20;;;;;;5049082;28;20158;-84
2021/06/23 00:21:27;;;;;;;10.85;6.10;;;11.40;95.30;;;;;;5048352;28;20063;-86
2021/06/23 00:23:53;;;;;;;17.58;6.85;;;11.40;95.40;;;;;;5064308;28;20032;-84
2021/06/23 00:26:19;;;;;;;19.50;7.22;;;11.40;95.50;;;;;;5034953;28;20098;-84
2021/06/23 00:28:45;;;;;;;12.77;6.15;;;11.40;95.70;;;;;;5069273;28;20040;-84
2021/06/23 00:31:11;;;;;;;21.02;6.65;;;11.40;95.80;;;;;;5030631;28;20036;-83
2021/06/23 00:33:37;;;;;;;11.95;6.28;;;11.40;95.80;;;;;;5034083;28;20039;-84
2021/06/23 00:36:03;;;;;;;13.18;6.57;;;11.40;95.80;;;;;;5065759;28;20028;-84
2021/06/23 00:38:29;;;;;;;15.88;6.47;;;11.40;95.70;;;;;;5069690;28;20114;-83
2021/06/23 00:40:56;;;;;;;20.48;7.55;;;11.40;95.60;;;;;;5032776;28;20492;-84
2021/06/23 00:43:23;;;;;;;16.52;7.80;;;11.40;95.60;;;;;;5053536;28;20383;-84
2021/06/23 00:45:50;;;;;;;17.92;7.63;;;11.40;95.60;;;;;;5051690;28;20040;-84
2021/06/23 00:48:27;;;;;;;18.35;7.32;;;11.40;95.70;;;;;;5045622;28;20093;-84
2021/06/23 00:50:54;;;;;;;23.88;8.68;;;11.40;95.80;;;;;;5069438;28;20086;-84
2021/06/23 00:53:20;;;;;;;16.17;8.02;;;11.40;95.80;;;;;;5067150;28;20135;-84
2021/06/23 00:55:50;;;;;;;15.45;8.43;;;11.40;95.80;;;;;;5052254;28;20074;-85
2021/06/23 00:58:16;;;;;;;24.92;9.43;;;11.40;96.00;;;;;;5069896;28;20024;-84
2021/06/23 01:00:42;;;;;;;21.63;8.82;;;11.40;96.00;;;;;;5064863;28;20059;-84
2021/06/23 01:03:10;;;;;;;15.57;8.10;;;11.40;96.10;;;;;;5036922;28;20042;-84
2021/06/23 01:05:37;;;;;;;18.73;8.82;;;11.40;96.20;;;;;;5069761;28;20122;-84
2021/06/23 01:08:04;;;;;;;14.85;8.07;;;11.40;96.30;;;;;;5051437;28;20554;-84
2021/06/23 01:10:34;;;;;;;17.33;8.70;;;11.40;96.30;;;;;;5035082;28;20821;-84
2021/06/23 01:13:28;;;;;;;18.17;8.20;;;11.40;96.20;;;;;;5037702;28;20051;-83
2021/06/23 01:15:56;;;;;;;16.02;7.80;;;11.40;96.20;;;;;;5065798;28;20040;-83
2021/06/23 01:18:26;;;;;;;15.27;8.13;;;11.40;96.10;;;;;;5065892;28;20178;-84
2021/06/23 01:20:52;;;;;;;21.85;9.60;;;11.40;96.10;;;;;;5066792;28;20035;-83
2021/06/23 01:23:19;;;;;;;20.48;8.02;;;11.40;96.20;;;;;;5051220;28;20043;-84
2021/06/23 01:25:47;;;;;;;16.20;8.20;;;11.40;96.20;;;;;;5048467;28;20024;-83
2021/06/23 01:28:13;;;;;;;18.30;8.48;;;11.40;96.50;;;;;;5088113;28;20039;-83
2021/06/23 01:30:39;;;;;;;18.15;8.15;;;11.40;96.20;;;;;;5036041;28;20036;-86
2021/06/23 01:33:05;;;;;;;18.92;8.55;;;11.50;96.20;;;;;;5052953;28;20044;-84
2021/06/23 01:35:32;;;;;;;18.77;7.72;;;11.50;96.20;;;;;;5070058;28;20375;-84
2021/06/23 01:38:03;;;;;;;17.10;8.40;;;11.40;96.30;;;;;;5066696;28;20501;-86
2021/06/23 01:40:29;;;;;;;15.00;9.60;;;11.40;96.30;;;;;;5022163;28;20039;-83
2021/06/23 01:42:57;;;;;;;12.68;8.43;;;11.40;96.30;;;;;;5070246;28;20034;-83
2021/06/23 01:45:24;;;;;;;17.65;8.07;;;11.50;96.40;;;;;;5050220;28;20028;-86
2021/06/23 01:47:50;;;;;;;15.27;8.38;;;11.50;96.30;;;;;;5054989;28;20044;-84
2021/06/23 01:50:16;;;;;;;13.27;7.88;;;11.50;96.10;;;;;;5071991;28;20035;-83
2021/06/23 01:52:43;;;;;;;15.93;8.38;;;11.50;96.10;;;;;;5055538;28;20040;-83
2021/06/23 01:55:26;;;;;;;18.73;9.57;;;11.50;96.20;;;;;;5071809;28;20460;-83
2021/06/23 01:58:00;;;;;;;16.25;8.52;;;11.50;96.30;;;;;;5069135;28;20064;-84
2021/06/23 02:00:57;;;;;;;18.35;8.32;;;11.50;96.40;;;;;;5068007;28;20031;-85
2021/06/23 02:03:51;;;;;;;20.13;9.48;;;11.40;96.40;;;;;;5061963;28;20052;-84
2021/06/23 02:06:48;;;;;;;22.38;8.98;;;11.50;96.60;;;;;;5070013;28;20063;-85
2021/06/23 02:09:25;;;;;;;24.30;9.27;;;11.40;96.70;;;;;;5086944;28;20069;-84
2021/06/23 02:12:29;;;;;;;19.95;9.77;;;11.40;96.70;;;;;;5084370;28;20089;-85
2021/06/23 02:14:56;;;;;;;;;;;11.40;96.80;;;;;;5032894;28;20522;-85
2021/06/23 02:17:24;;;;;;;21.80;11.07;;;11.40;96.80;;;;;;5069531;28;19916;-85
2021/06/23 02:19:51;;;;;;;22.35;10.45;;;11.40;96.80;;;;;;5050311;28;20048;-86
2021/06/23 02:22:20;;;;;;;17.20;8.90;;;11.40;96.90;;;;;;5036225;28;20106;-87
2021/06/23 02:24:49;;;;;;;16.33;7.57;;;11.40;97.10;;;;;;5053522;28;20044;-85
2021/06/23 02:27:15;;;;;;;19.20;10.30;;;11.40;97.10;;;;;;5065173;28;20089;-85
2021/06/23 02:29:43;;;;;;;14.68;9.35;;;11.30;97.10;;;;;;5034756;28;20048;-85
2021/06/23 02:32:15;;;;;;;18.55;10.18;;;11.30;97.20;;;;;;5034428;28;20048;-85
2021/06/23 02:34:46;;;;;;;16.60;10.32;;;11.30;97.30;;;;;;5064212;28;20040;-85
2021/06/23 02:37:13;;;;;;;23.65;11.35;;;11.30;97.30;;;;;;5052343;28;20137;-86
2021/06/23 02:39:39;;;;;;;17.98;10.70;;;11.30;97.50;;;;;;5064615;28;20047;-85
2021/06/23 02:42:06;;;;;;;19.70;10.73;;;11.40;97.60;;;;;;5048635;28;20028;-85
2021/06/23 02:44:32;;;;;;;25.08;12.27;;;11.40;97.70;;;;;;5049253;28;20024;-84
2021/06/23 02:47:00;;;;;;;19.02;10.25;;;11.40;97.80;;;;;;5050775;28;20032;-84
2021/06/23 02:49:26;;;;;;;23.42;12.10;;;11.40;97.80;;;;;;5027968;28;20036;-85
2021/06/23 02:51:55;;;;;;;15.55;9.73;;;11.40;97.80;;;;;;5079268;28;20036;-85
2021/06/23 02:54:21;;;;;;;18.48;9.93;;;11.40;97.80;;;;;;5063557;28;20047;-85
2021/06/23 02:56:50;;;;;;;14.15;10.02;;;11.40;97.70;;;;;;5045881;28;20031;-86
2021/06/23 02:59:17;;;;;;;18.23;11.23;;;11.40;97.60;;;;;;5064390;28;20413;-86
2021/06/23 03:01:43;;;;;;;27.48;12.27;;;11.40;97.70;;;;;;5050395;28;20036;-85
2021/06/23 03:04:09;;;;;;;18.65;10.88;;;11.40;97.80;;;;;;5019292;28;20071;-85
2021/06/23 03:06:35;;;;;;;17.75;11.25;;;11.40;97.90;;;;;;5038561;28;20063;-85
2021/06/23 03:09:01;;;;;;;18.95;10.05;;;11.40;98.00;;;;;;5070984;28;20059;-85
2021/06/23 03:11:35;;;;;;;17.48;10.48;;;11.40;98.00;;;;;;5070959;28;20036;-85
2021/06/23 03:14:01;;;;;;;15.18;10.27;;;11.40;98.00;;;;;;5084658;28;20042;-85
2021/06/23 03:16:27;;;;;;;16.13;11.60;;;11.40;98.00;;;;;;5051566;28;20025;-85
2021/06/23 03:18:53;;;;;;;24.45;13.52;;;11.40;98.10;;;;;;5050674;28;20036;-85
2021/06/23 03:21:20;;;;;;;20.65;9.35;;;11.40;98.20;;;;;;5064304;28;20033;-85
2021/06/23 03:23:47;;;;;;;15.40;9.65;;;11.40;98.20;;;;;;5034143;28;20035;-87
2021/06/23 03:26:14;;;;;;;19.13;9.90;;;11.50;98.20;;;;;;5051935;28;20136;-86
2021/06/23 03:28:40;;;;;;;18.33;9.05;;;11.40;98.10;;;;;;5048256;28;20031;-85
2021/06/23 03:31:06;;;;;;;19.23;10.10;;;11.40;97.90;;;;;;5033446;28;20053;-85
2021/06/23 03:33:32;;;;;;;16.13;10.50;;;11.40;98.00;;;;;;5049841;28;20474;-84
2021/06/23 03:35:58;;;;;;;15.60;9.07;;;11.50;98.00;;;;;;5069228;28;20063;-85
2021/06/23 03:38:24;;;;;;;15.65;9.38;;;11.40;98.00;;;;;;5067283;28;20593;-85
2021/06/23 03:40:50;;;;;;;19.55;9.18;;;11.40;98.00;;;;;;5029687;28;20056;-85
2021/06/23 03:43:19;;;;;;;16.30;9.98;;;11.40;97.90;;;;;;5046283;28;20513;-85
2021/06/23 03:45:46;;;;;;;17.08;10.10;;;11.50;97.90;;;;;;5050316;28;20034;-86
2021/06/23 03:48:12;;;;;;;18.95;11.02;;;11.50;98.00;;;;;;5061647;28;20670;-85
2021/06/23 03:50:39;;;;;;;16.85;10.85;;;11.50;98.00;;;;;;5045677;28;20289;-86
2021/06/23 03:53:05;;;;;;;17.40;10.38;;;11.40;98.10;;;;;;5065072;28;20071;-85
2021/06/23 03:55:32;;;;;;;16.80;10.27;;;11.40;98.20;;;;;;5070051;28;20051;-86
2021/06/23 03:57:58;;;;;;;17.08;10.10;;;11.40;98.30;;;;;;5045190;28;20037;-86
2021/06/23 04:00:30;;;;;;;16.40;9.10;;;11.50;98.40;;;;;;5046704;28;20040;-86
2021/06/23 04:02:56;;;;;;;24.30;12.75;;;11.50;98.40;;;;;;5046313;28;20031;-85
2021/06/23 04:05:24;;;;;;;19.77;10.75;;;11.50;98.40;;;;;;5080598;28;20035;-87
2021/06/23 04:07:50;;;;;;;14.70;10.18;;;11.50;98.50;;;;;;5047412;28;20036;-86
2021/06/23 04:10:16;;;;;;;14.23;8.77;;;11.50;98.60;;;;;;5072808;28;20049;-86
2021/06/23 04:12:43;;;;;;;15.80;9.82;;;11.50;98.60;;;;;;5045607;28;20035;-85
2021/06/23 04:15:12;;;;;;;12.70;9.75;;;11.50;98.50;;;;;;5074990;28;20028;-85
2021/06/23 04:17:42;;;;;;;21.05;10.57;;;11.50;98.60;;;;;;5029522;28;20131;-86
2021/06/23 04:20:09;;;;;;;16.48;8.88;;;11.50;98.60;;;;;;5031233;28;20409;-88
2021/06/23 04:22:37;;;;;;;17.65;9.57;;;11.50;98.70;;;;;;5046369;28;20041;-85
2021/06/23 04:25:06;;;;;;;20.80;10.98;;;11.50;98.60;;;;;;5050168;28;20035;-85
2021/06/23 04:27:32;;;;;;;17.73;9.02;;;11.50;98.70;;;;;;5043173;28;20570;-85
2021/06/23 04:29:58;;;;;;;25.23;10.23;;;11.50;98.70;;;;;;5032660;28;20135;-87
2021/06/23 04:32:24;;;;;;;23.73;11.02;;;11.50;98.70;;;;;;5028818;28;20127;-87
2021/06/23 04:34:50;;;;;;;17.67;10.95;;;11.60;98.70;;;;;;5035032;28;20131;-86
2021/06/23 04:37:16;;;;;;;15.70;8.27;;;11.60;98.80;;;;;;5018222;28;20501;-86
2021/06/23 04:39:42;;;;;;;13.52;8.65;;;11.60;98.70;;;;;;5034160;28;20114;-87
2021/06/23 04:42:08;;;;;;;18.25;8.25;;;11.70;98.70;;;;;;5033820;28;20108;-85
2021/06/23 04:44:34;;;;;;;17.20;8.95;;;11.70;98.50;;;;;;5047259;28;20032;-86
2021/06/23 04:47:00;;;;;;;13.85;8.43;;;11.70;98.40;;;;;;5050938;28;20032;-84
2021/06/23 04:49:26;;;;;;;17.55;8.45;;;11.80;98.30;;;;;;5032945;28;20066;-87
2021/06/23 04:51:53;;;;;;;17.52;10.75;;;11.80;98.20;;;;;;5030976;28;20032;-87
2021/06/23 04:54:19;;;;;;;15.15;8.60;;;11.80;98.30;;;;;;5045211;28;20039;-88
2021/06/23 04:56:45;;;;;;;19.17;8.25;;;11.80;98.30;;;;;;5035558;28;20028;-88
2021/06/23 04:59:11;;;;;;;18.52;9.98;;;11.80;98.20;;;;;;5047822;28;20040;-87
2021/06/23 05:01:36;;;;;;;16.00;10.50;;;11.80;98.30;;;;;;5012212;28;20044;-88
2021/06/23 05:04:02;;;;;;;15.68;8.63;;;11.80;98.40;;;;;;5048858;28;20561;-89
2021/06/23 05:06:29;;;;;;;10.43;8.55;;;11.90;98.80;;;;;;5032268;28;20517;-87
2021/06/23 05:08:55;;;;;;;13.82;7.68;;;11.90;98.50;;;;;;5065685;28;20040;-88
2021/06/23 05:11:21;;;;;;;15.52;9.30;;;12.00;98.50;;;;;;5050830;28;20040;-86
2021/06/23 05:13:46;;;;;;;16.42;8.23;;;12.00;98.40;;;;;;5033835;28;20044;-87
2021/06/23 05:16:12;;;;;;;15.15;8.27;;;12.10;98.40;;;;;;5040743;28;20028;-87
2021/06/23 05:18:38;;;;;;;15.52;8.23;;;12.10;98.30;;;;;;5037395;28;20434;-87
2021/06/23 05:21:04;;;;;;;15.73;7.75;;;12.20;98.30;;;;;;5036304;28;20032;-86
2021/06/23 05:23:30;;;;;;;11.77;7.65;;;12.30;98.20;;;;;;5037447;28;20048;-85
2021/06/23 05:25:56;;;;;;;19.17;8.40;;;12.30;98.10;;;;;;5039864;28;20123;-85
2021/06/23 05:28:22;;;;;;;12.45;7.30;;;12.40;98.20;;;;;;5035035;28;20073;-87
2021/06/23 05:30:48;;;;;;;17.10;9.30;;;12.40;98.10;;;;;;5044797;28;20036;-88
2021/06/23 05:33:14;;;;;;;14.73;7.45;;;12.50;98.10;;;;;;5041268;28;20492;-88
2021/06/23 05:35:40;;;;;;;15.13;6.97;;;12.50;98.20;;;;;;5037377;28;20110;-87
2021/06/23 05:38:05;;;;;;;14.30;8.73;;;12.50;98.20;;;;;;5011748;28;20035;-86
2021/06/23 05:40:31;;;;;;;19.45;8.57;;;12.50;98.20;;;;;;5048241;28;20036;-89
2021/06/23 05:42:57;;;;;;;18.48;9.15;;;12.60;98.40;;;;;;5038079;28;20401;-87
2021/06/23 05:45:23;;;;;;;18.08;7.90;;;12.60;98.40;;;;;;5029101;28;20528;-86
2021/06/23 05:47:49;;;;;;;18.05;6.80;;;12.70;98.70;;;;;;5023822;28;20047;-86
2021/06/23 05:50:15;;;;;;;17.40;6.72;;;12.70;98.30;;;;;;5023670;28;20170;-86
2021/06/23 05:52:41;;;;;;;17.58;6.40;;;12.70;98.30;;;;;;5035780;28;20045;-87
2021/06/23 05:55:07;;;;;;;18.83;6.40;;;12.70;98.10;;;;;;5036189;28;20131;-86
2021/06/23 05:57:33;;;;;;;20.00;7.78;;;12.80;98.00;;;;;;5042606;28;20036;-86
2021/06/23 05:59:59;;;;;;;23.80;7.93;;;12.90;98.10;;;;;;5040243;28;20032;-88
2021/06/23 06:02:25;;;;;;;17.92;6.05;;;13.00;98.20;;;;;;5045287;28;20089;-87
2021/06/23 06:04:50;;;;;;;23.42;6.10;;;13.00;98.20;;;;;;5022991;28;20456;-86
2021/06/23 06:07:17;;;;;;;14.98;5.20;;;13.10;98.10;;;;;;5023615;28;20145;-87
2021/06/23 06:09:43;;;;;;;13.30;5.93;;;13.10;97.90;;;;;;5002504;28;20729;-87
2021/06/23 06:12:09;;;;;;;16.80;5.13;;;13.20;97.80;;;;;;5028231;28;20141;-87
2021/06/23 06:14:35;;;;;;;14.75;4.35;;;13.20;97.80;;;;;;5024368;28;20528;-86
2021/06/23 06:17:01;;;;;;;11.45;5.20;;;13.30;97.60;;;;;;5024930;28;20040;-86
2021/06/23 06:19:26;;;;;;;21.85;4.85;;;13.30;97.50;;;;;;5034628;28;20826;-85
2021/06/23 06:21:54;;;;;;;20.95;5.57;;;13.30;97.40;;;;;;5033632;28;20052;-85
2021/06/23 06:24:21;;;;;;;12.55;5.90;;;13.40;97.40;;;;;;5059858;28;20036;-87
2021/06/23 06:26:46;;;;;;;19.60;5.05;;;13.40;97.60;;;;;;5054700;28;20049;-85
2021/06/23 06:29:12;;;;;;;13.73;4.80;;;13.40;97.50;;;;;;5029704;28;20400;-86
2021/06/23 06:31:38;;;;;;;17.58;6.20;;;13.40;97.30;;;;;;5045610;28;20032;-86
2021/06/23 06:34:04;;;;;;;12.65;4.72;;;13.50;97.40;;;;;;5023852;28;20466;-83
2021/06/23 06:36:30;;;;;;;19.38;5.00;;;13.50;97.30;;;;;;5018925;28;20098;-85
2021/06/23 06:38:56;;;;;;;16.75;5.30;;;13.50;97.10;;;;;;5034755;28;20124;-88
2021/06/23 06:41:22;;;;;;;15.35;4.60;;;13.50;96.90;;;;;;5040826;28;20039;-85
2021/06/23 06:43:48;;;;;;;12.10;4.28;;;13.60;96.90;;;;;;5041842;28;20430;-86
2021/06/23 06:46:14;;;;;;;14.43;4.38;;;13.60;96.70;;;;;;5039393;28;20036;-85
2021/06/23 06:48:40;;;;;;;11.38;4.60;;;13.70;96.50;;;;;;5056971;28;20032;-87
2021/06/23 06:51:06;;;;;;;11.20;4.10;;;13.80;96.30;;;;;;5034782;28;20513;-85
2021/06/23 06:53:32;;;;;;;21.55;4.90;;;13.70;96.20;;;;;;5041238;28;20119;-85
2021/06/23 06:55:58;;;;;;;22.33;4.35;;;13.80;96.20;;;;;;5038762;28;20485;-85
2021/06/23 06:58:24;;;;;;;18.75;4.85;;;13.70;96.10;;;;;;5044846;28;20032;-85
2021/06/23 07:00:50;;;;;;;11.30;4.50;;;13.70;96.30;;;;;;5061011;28;20153;-85
2021/06/23 07:03:16;;;;;;;14.30;5.20;;;13.70;96.50;;;;;;5046902;28;20470;-84
2021/06/23 07:05:41;;;;;;;13.68;5.57;;;13.70;96.70;;;;;;5060978;28;20038;-88
2021/06/23 07:08:08;;;;;;;12.70;3.70;;;13.80;97.00;;;;;;5038866;28;20106;-85
2021/06/23 07:10:34;;;;;;;11.93;3.88;;;14.00;96.70;;;;;;5071542;28;20117;-85
2021/06/23 07:13:00;;;;;;;9.55;3.67;;;14.10;96.30;;;;;;5021486;28;20568;-86
2021/06/23 07:15:26;;;;;;;18.08;4.28;;;14.20;96.10;;;;;;5052129;28;20040;-86
2021/06/23 07:17:52;;;;;;;12.20;4.18;;;14.30;96.20;;;;;;5051338;28;21844;-86
2021/06/23 07:20:18;;;;;;;14.70;3.92;;;14.40;95.80;;;;;;5022952;28;20039;-85
2021/06/23 07:22:44;;;;;;;16.73;4.18;;;14.50;95.40;;;;;;5049921;22;20052;-87
2021/06/23 07:25:11;;;;;;;10.65;5.22;;;14.50;95.40;;;;;;5022091;28;20090;-87
2021/06/23 07:27:37;;;;;;;15.85;3.47;;;14.60;95.70;;;;;;5047505;28;20059;-86
2021/06/23 07:30:05;;;;;;;14.88;3.63;;;14.70;95.30;;;;;;5055119;28;20047;-89
2021/06/23 07:32:35;;;;;;;19.77;3.80;;;14.80;95.10;;;;;;5054222;28;20063;-87
2021/06/23 07:37:45;;;;;;;12.57;4.07;;;15.00;94.70;;;;;;5055656;28;20131;-88
2021/06/23 07:40:13;;;;;;;12.02;3.90;;;15.00;94.50;;;;;;5062203;28;20119;-88
2021/06/23 07:42:38;;;;;;;11.38;3.95;;;14.90;94.00;;;;;;5023777;28;20705;-86
2021/06/23 07:45:06;;;;;;;15.88;4.35;;;14.90;94.30;;;;;;5054540;28;20044;-88
2021/06/23 07:47:34;;;;;;;10.27;4.07;;;14.90;94.50;;;;;;5051973;28;20038;-88
2021/06/23 07:50:01;;;;;;;9.35;3.55;;;15.00;94.60;;;;;;5058723;28;20040;-87
2021/06/23 07:52:39;;;;;;;14.63;3.40;;;15.00;94.40;;;;;;5059924;28;20036;-88
2021/06/23 08:11:34;;;;;;;10.40;3.72;;;15.00;93.80;;;;;;5035789;28;20194;-87
2021/06/23 08:14:03;;;;;;;7.68;2.75;;;15.00;93.60;;;;;;5033493;28;20057;-89
2021/06/23 08:16:36;;;;;;;9.75;3.38;;;15.00;93.30;;;;;;5033159;28;20117;-89
2021/06/23 08:19:09;;;;;;;10.40;3.03;;;15.00;93.40;;;;;;5053809;28;20038;-88
2021/06/23 08:21:35;;;;;;;15.00;3.80;;;14.90;93.50;;;;;;5037782;28;20040;-89
2021/06/23 08:24:01;;;;;;;22.95;3.30;;;14.90;93.70;;;;;;5016357;28;20418;-89
2021/06/23 08:26:27;;;;;;;12.82;3.67;;;14.90;93.80;;;;;;5051030;28;20501;-90
2021/06/23 08:28:53;;;;;;;12.60;2.90;;;14.90;93.60;;;;;;5057156;28;20107;-90
2021/06/23 08:31:19;;;;;;;11.93;3.28;;;14.90;93.50;;;;;;5050913;28;20105;-88
2021/06/23 08:33:45;;;;;;;14.30;4.32;;;14.80;93.30;;;;;;5045939;28;20032;-88
2021/06/23 08:36:11;;;;;;;11.30;3.50;;;14.80;93.30;;;;;;5049062;28;20040;-90
2021/06/23 08:38:37;;;;;;;15.40;3.40;;;14.80;93.40;;;;;;5037463;28;20590;-89
2021/06/23 08:41:03;;;;;;;12.45;3.05;;;14.80;93.50;;;;;;5039064;28;20051;-90
2021/06/23 08:43:29;;;;;;;13.80;3.38;;;14.80;93.20;;;;;;5050808;28;20040;-90
2021/06/23 08:45:55;;;;;;;9.38;3.00;;;14.80;93.00;;;;;;5053568;28;20479;-89
2021/06/23 08:48:21;;;;;;;8.43;3.30;;;14.80;93.20;;;;;;5037888;28;20055;-89
2021/06/23 08:50:48;;;;;;;16.70;4.55;;;14.80;93.20;;;;;;5051508;28;20035;-89
2021/06/23 08:53:14;;;;;;;12.57;4.10;;;14.90;93.30;;;;;;5070223;28;20746;-89
2021/06/23 08:55:40;;;;;;;13.45;3.70;;;14.90;93.20;;;;;;5037062;28;20070;-88
2021/06/23 08:58:06;;;;;;;14.07;4.18;;;15.00;93.10;;;;;;5018347;28;20485;-91
2021/06/23 09:00:33;;;;;;;17.73;4.15;;;15.10;93.00;;;;;;5027091;28;20577;-87
2021/06/23 09:03:02;;;;;;;12.18;3.53;;;15.10;92.90;;;;;;5057202;28;20508;-87
2021/06/23 09:05:52;;;;;;;14.02;3.92;;;15.10;92.60;;;;;;5055895;28;20475;-87
2021/06/23 09:08:28;;;;;;;12.63;3.75;;;15.10;92.60;;;;;;5055932;28;20036;-87
2021/06/23 09:10:54;;;;;;;11.60;3.22;;;15.20;92.40;;;;;;5069927;28;20525;-91
2021/06/23 09:13:21;;;;;;;13.50;3.70;;;15.20;92.40;;;;;;5032105;28;20028;-87
2021/06/23 09:16:00;;;;;;;12.52;3.58;;;15.20;92.00;;;;;;5057353;28;21327;-89
2021/06/23 09:18:30;;;;;;;15.93;3.58;;;15.20;92.00;;;;;;5045161;28;20048;-90
2021/06/23 09:21:05;;;;;;;13.80;3.58;;;15.30;92.10;;;;;;5066093;28;20702;-87
2021/06/23 09:23:42;;;;;;;9.60;3.58;;;15.30;91.70;;;;;;5061757;28;20047;-85
2021/06/23 09:26:13;;;;;;;13.93;3.53;;;15.40;91.90;;;;;;5042041;28;20032;-87
2021/06/23 09:28:40;;;;;;;11.05;3.15;;;15.40;91.50;;;;;;5055401;28;20461;-87
2021/06/23 09:31:07;;;;;;;12.57;3.60;;;15.40;91.50;;;;;;5043436;28;20036;-88
2021/06/23 09:33:34;;;;;;;8.65;2.97;;;15.50;91.30;;;;;;5056067;28;20032;-87
2021/06/23 09:36:09;;;;;;;9.77;3.10;;;15.50;91.10;;;;;;5054633;28;20038;-88
2021/06/23 09:38:51;;;;;;;11.77;3.50;;;15.40;91.00;;;;;;5072611;28;20575;-86
2021/06/23 09:41:33;;;;;;;10.90;3.35;;;15.50;90.70;;;;;;5027725;28;20043;-87
2021/06/23 09:44:02;;;;;;;11.73;3.30;;;15.40;91.00;;;;;;5072605;28;20327;-88
2021/06/23 09:46:39;;;;;;;10.20;3.20;;;15.40;90.70;;;;;;5056534;28;20566;-86
2021/06/23 09:49:17;;;;;;;8.88;3.00;;;15.40;90.30;;;;;;5058309;28;20032;-86
2021/06/23 09:51:53;;;;;;;11.07;3.35;;;15.40;90.00;;;;;;5071517;28;20153;-88
2021/06/23 09:54:22;;;;;;;12.32;3.08;;;15.40;90.10;;;;;;5055652;28;20468;-88
2021/06/23 09:56:50;;;;;;;10.40;3.42;;;15.40;90.20;;;;;;5057572;28;20055;-88
2021/06/23 09:59:32;;;;;;;8.10;3.38;;;15.30;90.10;;;;;;5076339;28;20067;-91
2021/06/23 10:01:58;;;;;;;9.98;3.17;;;15.30;90.50;;;;;;5057247;28;20071;-90
2021/06/23 10:04:34;;;;;;;11.82;3.40;;;15.40;90.50;;;;;;5056823;28;20111;-88
2021/06/23 10:07:01;;;;;;;11.18;3.47;;;15.40;90.30;;;;;;5058955;28;20032;-88
2021/06/23 10:09:29;;;;;;;13.27;3.45;;;15.50;90.40;;;;;;5075743;28;20031;-87
2021/06/23 10:11:57;;;;;;;15.88;3.40;;;15.50;90.30;;;;;;5058083;28;20057;-89
2021/06/23 10:14:25;;;;;;;10.10;3.40;;;15.60;90.60;;;;;;5040124;28;20437;-88
2021/06/23 10:16:52;;;;;;;13.43;3.60;;;15.60;91.10;;;;;;5074496;28;20040;-89
2021/06/23 10:19:20;;;;;;;12.73;3.60;;;15.60;90.90;;;;;;5075052;28;20130;-89
2021/06/23 10:21:47;;;;;;;13.27;3.53;;;15.70;90.80;;;;;;5066988;28;20032;-88
2021/06/23 10:24:16;;;;;;;12.00;3.38;;;15.70;90.70;;;;;;5067658;28;20506;-89
2021/06/23 10:26:51;;;;;;;9.88;3.15;;;15.70;90.30;;;;;;5058836;28;20078;-88
2021/06/23 10:29:24;;;;;;;12.43;3.50;;;15.70;90.20;;;;;;5060092;28;20059;-87
2021/06/23 10:31:51;;;;;;;13.15;3.38;;;15.70;89.70;;;;;;5057852;28;20036;-89
2021/06/23 10:34:18;;;;;;;9.70;3.40;;;15.70;90.00;;;;;;5055097;28;20770;-88
2021/06/23 10:36:45;;;;;;;14.73;3.50;;;15.70;90.10;;;;;;5072865;28;20479;-88
2021/06/23 10:39:12;;;;;;;10.73;3.60;;;15.70;90.30;;;;;;5056675;28;20069;-88
2021/06/23 10:41:40;;;;;;;11.73;3.15;;;15.60;90.10;;;;;;5063229;28;20083;-90
2021/06/23 10:44:22;;;;;;;11.95;3.65;;;15.70;90.10;;;;;;5075762;28;20044;-89
2021/06/23 10:46:53;;;;;;;12.32;3.00;;;15.70;90.20;;;;;;5061048;28;20032;-88
2021/06/23 10:49:38;;;;;;;8.77;3.17;;;15.80;90.40;;;;;;5058492;28;20104;-86
2021/06/23 10:52:19;;;;;;;10.25;3.15;;;15.80;90.00;;;;;;5054953;28;20079;-88
2021/06/23 10:54:55;;;;;;;9.40;3.17;;;15.80;89.70;;;;;;5076616;28;20032;-88
2021/06/23 10:57:33;;;;;;;13.35;3.42;;;15.80;88.90;;;;;;5030441;28;20051;-87
2021/06/23 11:00:23;;;;;;;12.65;3.10;;;15.70;89.00;;;;;;5059785;28;20093;-87
2021/06/23 11:02:58;;;;;;;11.68;3.30;;;15.80;89.00;;;;;;5082945;28;20066;-90
2021/06/23 11:05:46;;;;;;;12.60;3.70;;;15.70;88.90;;;;;;5082697;28;20040;-88
2021/06/23 11:08:28;;;;;;;14.10;3.25;;;15.70;89.10;;;;;;5056010;28;20032;-90
2021/06/23 11:10:55;;;;;;;12.68;3.22;;;15.80;88.80;;;;;;5072195;28;20028;-88
2021/06/23 11:13:24;;;;;;;11.43;3.28;;;15.70;89.50;;;;;;5073545;28;20040;-89
2021/06/23 11:15:51;;;;;;;17.27;3.45;;;15.80;89.20;;;;;;5065814;28;21088;-90
2021/06/23 11:18:27;;;;;;;12.45;3.40;;;15.80;88.90;;;;;;5055035;28;20044;-87
2021/06/23 11:20:58;;;;;;;12.45;3.10;;;15.80;89.50;;;;;;5064212;28;20058;-88
2021/06/23 11:23:39;;;;;;;17.77;3.25;;;15.80;89.50;;;;;;5057636;28;20031;-89
2021/06/23 11:26:06;;;;;;;9.38;2.90;;;15.80;89.10;;;;;;5076804;28;20035;-87
2021/06/23 11:28:32;;;;;;;11.60;3.05;;;15.80;89.50;;;;;;5074817;28;20039;-89
2021/06/23 11:31:09;;;;;;;6.93;2.45;;;15.80;88.70;;;;;;5053221;28;20490;-87
2021/06/23 11:33:37;;;;;;;11.45;2.85;;;15.80;88.30;;;;;;5052563;28;20043;-88
2021/06/23 11:36:11;;;;;;;10.18;3.05;;;15.80;87.90;;;;;;5056303;28;20028;-87
2021/06/23 11:38:38;;;;;;;12.60;3.05;;;15.80;87.40;;;;;;5048739;28;20402;-89
2021/06/23 11:41:07;;;;;;;18.63;3.05;;;15.80;88.00;;;;;;5060864;28;20130;-86
2021/06/23 11:43:33;;;;;;;8.70;2.88;;;15.80;88.20;;;;;;5059963;28;20075;-87
2021/06/23 11:45:59;;;;;;;12.88;2.88;;;15.80;87.50;;;;;;5056238;28;20066;-88
2021/06/23 11:48:25;;;;;;;11.20;3.00;;;15.80;88.20;;;;;;5042726;28;20044;-88
2021/06/23 11:50:52;;;;;;;11.23;3.08;;;15.90;87.50;;;;;;5043694;28;20068;-88
2021/06/23 11:53:19;;;;;;;7.75;2.95;;;15.90;86.80;;;;;;5042887;28;20490;-87
2021/06/23 11:55:48;;;;;;;8.60;2.83;;;15.90;86.20;;;;;;5055172;28;20041;-88
2021/06/23 11:58:14;;;;;;;15.23;3.40;;;16.00;87.40;;;;;;5059471;28;20040;-88
2021/06/23 12:00:41;;;;;;;10.65;2.60;;;16.10;87.20;;;;;;5037873;28;20048;-89
2021/06/23 12:03:09;;;;;;;10.00;2.97;;;16.10;86.40;;;;;;5048334;28;20032;-87
2021/06/23 12:05:36;;;;;;;10.48;2.75;;;16.20;88.00;;;;;;5055007;28;20047;-89
2021/06/23 12:08:02;;;;;;;8.45;2.72;;;16.20;87.40;;;;;;5059925;28;20055;-88
2021/06/23 12:10:29;;;;;;;11.48;2.67;;;16.30;86.80;;;;;;5053738;28;20052;-90
2021/06/23 12:12:56;;;;;;;13.32;2.92;;;16.30;85.80;;;;;;5060493;28;20036;-87
2021/06/23 12:15:24;;;;;;;6.97;2.67;;;16.30;86.00;;;;;;5054800;28;20032;-88
2021/06/23 12:17:53;;;;;;;8.85;3.05;;;16.30;85.50;;;;;;5058547;28;20036;-89
2021/06/23 12:20:20;;;;;;;10.90;2.97;;;16.30;85.20;;;;;;5057569;28;20171;-89
2021/06/23 12:22:55;;;;;;;10.30;2.92;;;16.40;85.20;;;;;;5058765;28;20131;-89
2021/06/23 12:25:22;;;;;;;10.15;3.25;;;16.50;85.90;;;;;;5076936;28;20268;-88
2021/06/23 12:27:48;;;;;;;10.27;3.20;;;16.60;85.90;;;;;;5061178;28;20036;-88
2021/06/23 12:30:14;;;;;;;8.43;2.70;;;16.70;85.60;;;;;;5043697;28;20087;-87
2021/06/23 12:32:40;;;;;;;7.57;2.90;;;16.70;85.20;;;;;;5079134;28;21477;-88
2021/06/23 12:35:06;;;;;;;9.25;3.05;;;16.80;85.00;;;;;;5024360;28;20025;-89
2021/06/23 12:37:33;;;;;;;9.30;3.25;;;16.90;84.00;;;;;;5057659;28;20125;-89
2021/06/23 12:39:59;;;;;;;7.75;2.90;;;16.90;85.00;;;;;;5026111;28;20482;-87
2021/06/23 12:42:25;;;;;;;11.82;3.22;;;17.00;84.00;;;;;;5060937;28;20040;-89
2021/06/23 12:44:51;;;;;;;11.00;3.25;;;17.00;83.90;;;;;;5053290;28;20043;-89
2021/06/23 12:47:17;;;;;;;11.75;3.50;;;17.10;83.90;;;;;;5025218;28;20040;-87
2021/06/23 12:49:43;;;;;;;11.55;3.22;;;17.10;84.00;;;;;;5058436;28;20055;-89
2021/06/23 12:52:09;;;;;;;10.20;3.10;;;17.10;84.00;;;;;;5038924;28;20074;-85
2021/06/23 12:54:34;;;;;;;11.65;3.47;;;17.20;83.60;;;;;;5075571;28;20521;-85
2021/06/23 12:57:00;;;;;;;7.97;2.83;;;17.10;83.30;;;;;;5063658;28;20028;-87
2021/06/23 12:59:29;;;;;;;6.22;2.50;;;17.10;82.00;;;;;;5063764;28;20036;-87
2021/06/23 13:01:57;;;;;;;6.97;2.50;;;17.00;81.50;;;;;;5061615;28;20036;-88